createdAt,value
2022-12-11T00:01:36.603Z,0.20
2022-12-11T00:04:03.213Z,0.20
2022-12-11T00:06:29.791Z,0.20
2022-12-11T00:08:56.336Z,0.20
2022-12-11T00:11:23.691Z,0.20
2022-12-11T00:13:50.761Z,0.10
2022-12-11T00:16:18.186Z,0.20
2022-12-11T00:18:46.899Z,0.20
2022-12-11T00:21:14.641Z,0.10
2022-12-11T00:23:42.121Z,0.10
2022-12-11T00:26:12.093Z,0.20
2022-12-11T00:28:38.956Z,0.20
2022-12-11T00:31:11.189Z,0.20
2022-12-11T00:33:37.760Z,0.30
2022-12-11T00:36:10.497Z,0.10
2022-12-11T00:38:37.061Z,0.10
2022-12-11T00:41:03.629Z,0.10
2022-12-11T00:43:30.371Z,0.10
2022-12-11T00:45:56.929Z,0.20
2022-12-11T00:48:23.517Z,0.10
2022-12-11T00:50:50.064Z,0.10
2022-12-11T00:53:16.672Z,0.10
2022-12-11T00:55:44.182Z,0.00
2022-12-11T00:58:12.057Z,0.10
2022-12-11T01:00:40.335Z,0.10
2022-12-11T01:03:07.422Z,0.10
2022-12-11T01:05:34.493Z,0.10
2022-12-11T01:08:01.081Z,0.10
2022-12-11T01:10:28.142Z,0.10
2022-12-11T01:12:56.193Z,0.10
2022-12-11T01:15:24.985Z,0.10
2022-12-11T01:17:52.345Z,0.20
2022-12-11T01:20:20.734Z,0.10
2022-12-11T01:22:47.605Z,0.00
2022-12-11T01:25:14.640Z,0.00
2022-12-11T01:27:41.260Z,-0.10
2022-12-11T01:30:09.332Z,0.00
2022-12-11T01:32:36.345Z,0.00
2022-12-11T01:35:04.653Z,0.00
2022-12-11T01:37:31.316Z,0.00
2022-12-11T01:39:57.957Z,-0.10
2022-12-11T01:42:25.153Z,0.00
2022-12-11T01:44:51.657Z,0.00
2022-12-11T01:47:18.326Z,0.00
2022-12-11T01:49:44.908Z,0.00
2022-12-11T01:52:16.246Z,0.00
2022-12-11T01:54:43.642Z,0.10
2022-12-11T01:57:12.438Z,0.10
2022-12-11T01:59:43.228Z,0.00
2022-12-11T02:02:22.550Z,0.10
2022-12-11T02:04:49.708Z,0.00
2022-12-11T02:07:16.272Z,0.00
2022-12-11T02:09:45.245Z,0.10
2022-12-11T02:12:19.401Z,0.10
2022-12-11T02:15:16.936Z,0.10
2022-12-11T02:17:58.435Z,0.10
2022-12-11T02:20:31.772Z,0.20
2022-12-11T02:23:19.121Z,0.10
2022-12-11T02:26:12.113Z,0.20
2022-12-11T02:28:46.060Z,0.10
2022-12-11T02:31:15.450Z,0.00
2022-12-11T02:33:49.830Z,0.10
2022-12-11T02:36:18.975Z,0.10
2022-12-11T02:38:50.541Z,0.00
2022-12-11T02:41:20.113Z,0.00
2022-12-11T02:43:48.355Z,0.00
2022-12-11T02:46:17.364Z,0.00
2022-12-11T02:48:45.625Z,0.00
2022-12-11T02:51:16.426Z,0.10
2022-12-11T02:53:44.073Z,0.10
2022-12-11T02:56:13.808Z,0.10
2022-12-11T02:58:47.744Z,0.00
2022-12-11T03:01:14.550Z,0.00
2022-12-11T03:03:41.281Z,0.00
2022-12-11T03:06:11.376Z,0.00
2022-12-11T03:08:37.992Z,0.00
2022-12-11T03:11:04.633Z,-0.10
2022-12-11T03:13:31.600Z,-0.10
2022-12-11T03:16:15.254Z,-0.10
2022-12-11T03:18:54.575Z,-0.10
2022-12-11T03:21:36.268Z,-0.10
2022-12-11T03:24:16.812Z,-0.10
2022-12-11T03:26:53.138Z,0.00
2022-12-11T03:29:39.704Z,-0.10
2022-12-11T03:32:19.692Z,0.00
2022-12-11T03:35:12.138Z,0.00
2022-12-11T03:37:41.751Z,0.10
2022-12-11T03:40:13.227Z,0.10
2022-12-11T03:42:41.603Z,0.10
2022-12-11T03:45:09.534Z,0.10
2022-12-11T03:47:39.036Z,0.00
2022-12-11T03:50:09.584Z,-0.10
2022-12-11T03:52:42.388Z,-0.10
2022-12-11T03:55:15.744Z,-0.10
2022-12-11T03:57:42.506Z,-0.10
2022-12-11T04:00:13.724Z,-0.10
2022-12-11T04:02:41.132Z,0.00
2022-12-11T04:05:08.667Z,-0.10
2022-12-11T04:07:35.748Z,-0.10
2022-12-11T04:10:02.496Z,0.00
2022-12-11T04:12:29.042Z,0.00
2022-12-11T04:15:01.785Z,0.00
2022-12-11T04:17:53.172Z,0.00
2022-12-11T04:20:39.755Z,0.00
2022-12-11T04:23:29.597Z,0.00
2022-12-11T04:26:07.421Z,0.00
2022-12-11T04:28:34.459Z,0.10
2022-12-11T04:31:01.218Z,0.10
2022-12-11T04:33:28.430Z,0.00
2022-12-11T04:35:58.674Z,-0.10
2022-12-11T04:38:25.696Z,-0.10
2022-12-11T04:41:06.792Z,-0.10
2022-12-11T04:43:33.773Z,-0.10
2022-12-11T04:46:06.060Z,0.00
2022-12-11T04:48:33.579Z,0.00
2022-12-11T04:51:00.193Z,0.00
2022-12-11T04:53:26.777Z,0.00
2022-12-11T04:55:53.644Z,0.00
2022-12-11T04:58:20.447Z,0.00
2022-12-11T05:00:47.126Z,0.00
2022-12-11T05:03:13.985Z,0.00
2022-12-11T05:05:40.562Z,0.10
2022-12-11T05:08:08.171Z,0.10
2022-12-11T05:10:34.818Z,0.10
2022-12-11T05:13:01.485Z,0.10
2022-12-11T05:15:28.053Z,0.00
2022-12-11T05:17:54.672Z,0.00
2022-12-11T05:20:21.226Z,0.10
2022-12-11T05:22:47.799Z,0.10
2022-12-11T05:25:14.352Z,0.10
2022-12-11T05:27:41.244Z,0.10
2022-12-11T05:30:08.955Z,0.00
2022-12-11T05:32:35.550Z,0.00
2022-12-11T05:35:03.659Z,0.00
2022-12-11T05:37:30.295Z,0.10
2022-12-11T05:39:56.918Z,0.00
2022-12-11T05:42:28.608Z,0.00
2022-12-11T05:44:55.622Z,0.00
2022-12-11T05:47:22.176Z,-0.10
2022-12-11T05:49:48.876Z,-0.10
2022-12-11T05:52:16.589Z,-0.10
2022-12-11T05:54:43.439Z,-0.10
2022-12-11T05:57:10.010Z,-0.10
2022-12-11T05:59:36.589Z,0.00
2022-12-11T06:02:03.250Z,0.00
2022-12-11T06:04:29.828Z,0.00
2022-12-11T06:06:56.401Z,0.00
2022-12-11T06:09:23.003Z,0.10
2022-12-11T06:11:49.593Z,0.00
2022-12-11T06:14:16.292Z,-0.10
2022-12-11T06:16:42.950Z,0.00
2022-12-11T06:19:15.180Z,-0.10
2022-12-11T06:21:42.008Z,-0.10
2022-12-11T06:24:10.699Z,-0.20
2022-12-11T06:26:37.445Z,-0.10
2022-12-11T06:29:07.650Z,0.00
2022-12-11T06:31:37.532Z,0.00
2022-12-11T06:34:04.144Z,-0.10
2022-12-11T06:36:30.697Z,-0.20
2022-12-11T06:38:57.252Z,-0.20
2022-12-11T06:41:23.811Z,-0.20
2022-12-11T06:43:50.757Z,-0.10
2022-12-11T06:46:19.849Z,-0.10
2022-12-11T06:48:47.605Z,-0.10
2022-12-11T06:51:18.062Z,-0.10
2022-12-11T06:53:45.041Z,-0.10
2022-12-11T06:56:14.321Z,-0.20
2022-12-11T06:58:42.347Z,-0.10
2022-12-11T07:01:20.707Z,-0.10
2022-12-11T07:03:48.105Z,-0.10
2022-12-11T07:06:15.437Z,-0.20
2022-12-11T07:08:43.216Z,-0.20
2022-12-11T07:11:12.713Z,-0.20
2022-12-11T07:13:41.893Z,-0.20
2022-12-11T07:16:12.670Z,-0.20
2022-12-11T07:18:41.408Z,-0.30
2022-12-11T07:21:09.470Z,-0.30
2022-12-11T07:23:36.105Z,-0.30
2022-12-11T07:26:12.196Z,-0.30
2022-12-11T07:28:39.603Z,-0.20
2022-12-11T07:31:15.076Z,-0.10
2022-12-11T07:33:42.578Z,-0.10
2022-12-11T07:36:11.397Z,-0.10
2022-12-11T07:38:38.052Z,-0.20
2022-12-11T07:41:07.044Z,-0.20
2022-12-11T07:43:35.204Z,-0.20
2022-12-11T07:46:11.501Z,-0.10
2022-12-11T07:48:39.590Z,-0.10
2022-12-11T07:51:17.174Z,-0.10
2022-12-11T07:53:50.368Z,-0.20
2022-12-11T07:56:18.419Z,-0.10
2022-12-11T07:58:46.223Z,-0.20
2022-12-11T08:01:21.681Z,-0.20
2022-12-11T08:03:49.087Z,-0.10
2022-12-11T08:06:15.731Z,-0.20
2022-12-11T08:08:42.809Z,-0.20
2022-12-11T08:11:12.676Z,-0.10
2022-12-11T08:13:39.774Z,-0.10
2022-12-11T08:16:08.790Z,-0.10
2022-12-11T08:18:36.492Z,-0.10
2022-12-11T08:21:08.557Z,-0.10
2022-12-11T08:23:35.559Z,0.00
2022-12-11T08:26:04.392Z,0.00
2022-12-11T08:28:31.040Z,0.00
2022-12-11T08:30:57.720Z,0.10
2022-12-11T08:33:24.334Z,0.10
2022-12-11T08:35:50.965Z,0.10
2022-12-11T08:38:22.217Z,0.00
2022-12-11T08:40:51.738Z,0.00
2022-12-11T08:43:18.284Z,0.00
2022-12-11T08:45:46.575Z,0.00
2022-12-11T08:48:13.364Z,0.00
2022-12-11T08:50:39.947Z,0.00
2022-12-11T08:53:06.936Z,0.00
2022-12-11T08:55:35.741Z,0.00
2022-12-11T08:58:02.402Z,0.00
2022-12-11T09:00:29.024Z,0.00
2022-12-11T09:02:55.641Z,0.00
2022-12-11T09:05:22.332Z,0.10
2022-12-11T09:07:48.941Z,0.10
2022-12-11T09:10:15.597Z,0.10
2022-12-11T09:12:42.671Z,0.20
2022-12-11T09:15:09.867Z,0.30
2022-12-11T09:17:36.707Z,0.30
2022-12-11T09:20:04.601Z,0.30
2022-12-11T09:22:33.781Z,0.20
2022-12-11T09:25:00.398Z,0.20
2022-12-11T09:27:26.961Z,0.20
2022-12-11T09:29:53.536Z,0.30
2022-12-11T09:32:20.077Z,0.30
2022-12-11T09:34:49.725Z,0.30
2022-12-11T09:37:16.669Z,0.40
2022-12-11T09:39:43.409Z,0.40
2022-12-11T09:42:31.252Z,0.40
2022-12-11T09:45:01.933Z,0.30
2022-12-11T09:47:44.910Z,0.40
2022-12-11T09:50:17.512Z,0.40
2022-12-11T09:53:05.249Z,0.40
2022-12-11T09:55:41.459Z,0.30
2022-12-11T09:58:31.846Z,0.30
2022-12-11T10:01:03.693Z,0.40
2022-12-11T10:03:53.483Z,0.30
2022-12-11T10:06:35.453Z,0.40
2022-12-11T10:09:37.164Z,0.30
2022-12-11T10:12:21.330Z,0.40
2022-12-11T10:15:04.149Z,0.50
2022-12-11T10:17:36.885Z,0.50
2022-12-11T10:20:28.642Z,0.60
2022-12-11T10:22:56.874Z,0.50
2022-12-11T10:25:41.115Z,0.40
2022-12-11T10:28:17.047Z,0.50
2022-12-11T10:31:25.425Z,0.40
2022-12-11T10:34:04.347Z,0.50
2022-12-11T10:36:35.056Z,0.50
2022-12-11T10:39:02.275Z,0.50
2022-12-11T10:41:34.676Z,0.30
2022-12-11T10:44:01.836Z,0.40
2022-12-11T10:46:32.164Z,0.40
2022-12-11T10:49:01.360Z,0.40
2022-12-11T10:51:30.781Z,0.40
2022-12-11T10:54:20.175Z,0.30
2022-12-11T10:56:48.677Z,0.40
2022-12-11T10:59:43.955Z,0.50
2022-12-11T11:02:28.274Z,0.60
2022-12-11T11:04:56.991Z,0.50
2022-12-11T11:07:28.789Z,0.50
2022-12-11T11:10:25.396Z,0.40
2022-12-11T11:13:00.126Z,0.50
2022-12-11T11:15:29.176Z,0.60
2022-12-11T11:18:00.580Z,0.70
2022-12-11T11:20:30.714Z,0.70
2022-12-11T11:23:04.380Z,0.60
2022-12-11T11:25:33.590Z,0.60
2022-12-11T11:28:07.698Z,0.60
2022-12-11T11:30:40.962Z,0.60
2022-12-11T11:33:18.158Z,0.50
2022-12-11T11:36:06.554Z,0.40
2022-12-11T11:38:43.256Z,0.50
2022-12-11T11:41:15.319Z,0.40
2022-12-11T11:43:47.255Z,0.50
2022-12-11T11:46:33.421Z,0.50
2022-12-11T11:49:24.143Z,0.50
2022-12-11T11:52:17.536Z,0.70
2022-12-11T11:55:06.421Z,0.80
2022-12-11T11:57:42.425Z,0.70
2022-12-11T12:00:31.930Z,0.80
2022-12-11T12:03:09.487Z,0.80
2022-12-11T12:05:44.489Z,0.80
2022-12-11T12:08:26.826Z,0.70
2022-12-11T12:10:59.646Z,0.60
2022-12-11T12:14:03.440Z,0.50
2022-12-11T12:16:56.830Z,0.70
2022-12-11T12:19:56.316Z,0.60
2022-12-11T12:22:33.254Z,0.70
2022-12-11T12:25:25.122Z,0.80
2022-12-11T12:28:21.152Z,0.60
2022-12-11T12:30:48.087Z,0.60
2022-12-11T12:33:29.900Z,0.60
2022-12-11T12:36:07.243Z,0.60
2022-12-11T12:38:52.733Z,0.60
2022-12-11T12:42:02.636Z,0.60
2022-12-11T12:44:57.593Z,0.60
2022-12-11T12:47:26.529Z,0.70
2022-12-11T12:49:55.442Z,0.70
2022-12-11T12:52:35.165Z,0.70
2022-12-11T12:55:13.896Z,0.70
2022-12-11T12:57:45.832Z,0.70
2022-12-11T13:00:13.551Z,0.80
2022-12-11T13:02:50.770Z,0.80
2022-12-11T13:05:29.302Z,0.80
2022-12-11T13:07:59.026Z,0.60
2022-12-11T13:10:32.986Z,0.60
2022-12-11T13:13:01.495Z,0.70
2022-12-11T13:15:33.265Z,0.70
2022-12-11T13:18:01.824Z,0.60
2022-12-11T13:20:31.414Z,0.70
2022-12-11T13:23:07.026Z,0.60
2022-12-11T13:25:56.929Z,0.60
2022-12-11T13:28:37.445Z,0.60
2022-12-11T13:31:05.736Z,0.60
2022-12-11T13:33:33.253Z,0.60
2022-12-11T13:36:15.753Z,0.50
2022-12-11T13:38:55.554Z,0.50
2022-12-11T13:41:23.023Z,0.50
2022-12-11T13:43:50.404Z,0.60
2022-12-11T13:46:24.208Z,0.60
2022-12-11T13:49:00.668Z,0.50
2022-12-11T13:51:29.641Z,0.50
2022-12-11T13:54:07.285Z,0.50
2022-12-11T13:56:34.293Z,0.40
2022-12-11T13:59:01.304Z,0.40
2022-12-11T14:01:31.428Z,0.40
2022-12-11T14:04:05.407Z,0.20
2022-12-11T14:06:33.913Z,0.30
2022-12-11T14:09:05.197Z,0.30
2022-12-11T14:11:37.041Z,0.20
2022-12-11T14:14:08.401Z,0.20
2022-12-11T14:16:35.170Z,0.20
2022-12-11T14:19:09.673Z,0.10
2022-12-11T14:21:36.606Z,0.10
2022-12-11T14:24:04.962Z,0.10
2022-12-11T14:26:38.576Z,0.20
2022-12-11T14:29:06.498Z,0.10
2022-12-11T14:31:41.255Z,0.10
2022-12-11T14:34:23.743Z,0.00
2022-12-11T14:36:51.225Z,0.00
2022-12-11T14:39:33.741Z,0.00
2022-12-11T14:42:07.645Z,0.00
2022-12-11T14:44:55.161Z,0.00
2022-12-11T14:47:37.748Z,-0.10
2022-12-11T14:50:26.876Z,-0.10
2022-12-11T14:52:58.928Z,-0.20
2022-12-11T14:55:37.257Z,-0.40
2022-12-11T14:58:21.463Z,-0.40
2022-12-11T15:01:25.063Z,-0.50
2022-12-11T15:04:03.494Z,-0.50
2022-12-11T15:06:33.165Z,-0.60
2022-12-11T15:09:20.840Z,-0.70
2022-12-11T15:11:49.540Z,-0.70
2022-12-11T15:14:19.717Z,-0.80
2022-12-11T15:16:47.877Z,-0.80
2022-12-11T15:19:32.519Z,-0.80
2022-12-11T15:22:04.614Z,-0.90
2022-12-11T15:24:38.367Z,-1.10
2022-12-11T15:27:05.400Z,-1.20
2022-12-11T15:29:39.886Z,-1.30
2022-12-11T15:32:09.179Z,-1.40
2022-12-11T15:34:53.423Z,-1.40
2022-12-11T15:37:36.512Z,-1.40
2022-12-11T15:40:04.737Z,-1.40
2022-12-11T15:42:35.161Z,-1.50
2022-12-11T15:45:03.033Z,-1.50
2022-12-11T15:47:32.563Z,-1.60
2022-12-11T15:50:02.266Z,-1.60
2022-12-11T15:52:28.944Z,-1.60
2022-12-11T15:54:55.491Z,-1.70
2022-12-11T15:57:24.061Z,-1.80
2022-12-11T15:59:52.741Z,-1.70
2022-12-11T16:02:19.313Z,-1.80
2022-12-11T16:04:45.950Z,-1.80
2022-12-11T16:07:24.410Z,-1.90
2022-12-11T16:09:51.304Z,-1.90
2022-12-11T16:12:18.257Z,-2.10
2022-12-11T16:14:46.306Z,-2.20
2022-12-11T16:17:14.597Z,-2.20
2022-12-11T16:19:42.369Z,-2.30
2022-12-11T16:22:10.361Z,-2.20
2022-12-11T16:24:37.966Z,-2.30
2022-12-11T16:27:05.932Z,-2.30
2022-12-11T16:29:37.654Z,-2.40
2022-12-11T16:32:06.930Z,-2.50
2022-12-11T16:34:34.264Z,-2.50
2022-12-11T16:37:01.257Z,-2.40
2022-12-11T16:39:28.070Z,-2.30
2022-12-11T16:41:54.754Z,-2.50
2022-12-11T16:44:23.259Z,-2.60
2022-12-11T16:46:51.574Z,-2.70
2022-12-11T16:49:18.341Z,-2.70
2022-12-11T16:51:45.077Z,-2.70
2022-12-11T16:54:12.060Z,-2.80
2022-12-11T16:56:39.130Z,-2.70
2022-12-11T16:59:06.201Z,-2.80
2022-12-11T17:01:33.424Z,-2.70
2022-12-11T17:04:00.754Z,-2.70
2022-12-11T17:06:27.744Z,-2.80
2022-12-11T17:08:54.730Z,-2.70
2022-12-11T17:11:22.635Z,-2.70
2022-12-11T17:13:54.904Z,-2.80
2022-12-11T17:16:25.978Z,-2.90
2022-12-11T17:18:53.716Z,-2.70
2022-12-11T17:21:22.160Z,-2.70
2022-12-11T17:23:49.741Z,-2.80
2022-12-11T17:26:17.514Z,-2.80
2022-12-11T17:28:44.644Z,-2.90
2022-12-11T17:31:17.827Z,-2.80
2022-12-11T17:33:45.979Z,-2.90
2022-12-11T17:36:15.529Z,-3.00
2022-12-11T17:38:42.156Z,-3.00
2022-12-11T17:41:15.517Z,-2.90
2022-12-11T17:43:47.232Z,-2.90
2022-12-11T17:46:14.291Z,-2.80
2022-12-11T17:48:41.021Z,-2.80
2022-12-11T17:51:09.444Z,-2.80
2022-12-11T17:53:36.379Z,-2.90
2022-12-11T17:56:05.600Z,-3.00
2022-12-11T17:58:32.666Z,-2.90
2022-12-11T18:00:59.760Z,-2.90
2022-12-11T18:03:27.981Z,-3.00
2022-12-11T18:05:56.720Z,-3.00
2022-12-11T18:08:26.393Z,-3.00
2022-12-11T18:10:54.259Z,-3.00
2022-12-11T18:13:22.034Z,-2.90
2022-12-11T18:16:00.741Z,-3.00
2022-12-11T18:18:27.488Z,-3.00
2022-12-11T18:20:54.152Z,-3.00
2022-12-11T18:23:20.800Z,-3.00
2022-12-11T18:25:47.425Z,-2.90
2022-12-11T18:28:14.250Z,-3.00
2022-12-11T18:30:40.971Z,-3.00
2022-12-11T18:33:07.533Z,-2.90
2022-12-11T18:35:34.175Z,-2.90
2022-12-11T18:38:00.760Z,-2.90
2022-12-11T18:40:28.662Z,-2.90
2022-12-11T18:42:55.513Z,-2.80
2022-12-11T18:45:22.069Z,-2.80
2022-12-11T18:47:51.208Z,-2.80
2022-12-11T18:50:18.491Z,-2.80
2022-12-11T18:52:45.122Z,-2.80
2022-12-11T18:55:12.070Z,-2.80
2022-12-11T18:57:39.129Z,-2.80
2022-12-11T19:00:07.462Z,-2.70
2022-12-11T19:02:35.338Z,-2.70
2022-12-11T19:05:02.018Z,-2.70
2022-12-11T19:07:28.695Z,-2.70
2022-12-11T19:09:55.257Z,-2.70
2022-12-11T19:12:21.899Z,-2.70
2022-12-11T19:14:48.789Z,-2.70
2022-12-11T19:17:15.356Z,-2.70
2022-12-11T19:19:43.138Z,-2.90
2022-12-11T19:22:10.212Z,-2.90
2022-12-11T19:24:36.782Z,-3.00
2022-12-11T19:27:07.358Z,-3.10
2022-12-11T19:29:36.714Z,-3.10
2022-12-11T19:32:04.143Z,-3.00
2022-12-11T19:34:30.950Z,-3.00
2022-12-11T19:36:57.920Z,-3.10
2022-12-11T19:39:24.877Z,-3.10
2022-12-11T19:41:51.819Z,-3.10
2022-12-11T19:44:18.810Z,-3.10
2022-12-11T19:46:45.720Z,-3.10
2022-12-11T19:49:12.655Z,-3.00
2022-12-11T19:51:41.774Z,-3.10
2022-12-11T19:54:12.325Z,-3.10
2022-12-11T19:56:39.006Z,-3.00
2022-12-11T19:59:08.632Z,-3.10
2022-12-11T20:01:37.207Z,-3.10
2022-12-11T20:04:06.912Z,-3.10
2022-12-11T20:06:36.860Z,-3.00
2022-12-11T20:09:05.336Z,-3.00
2022-12-11T20:11:32.949Z,-3.10
2022-12-11T20:14:00.096Z,-3.30
2022-12-11T20:16:46.175Z,-3.30
2022-12-11T20:19:14.108Z,-3.40
2022-12-11T20:21:40.826Z,-3.40
2022-12-11T20:24:07.942Z,-3.40
2022-12-11T20:26:36.821Z,-3.50
2022-12-11T20:29:07.223Z,-3.50
2022-12-11T20:31:35.395Z,-3.40
2022-12-11T20:34:02.585Z,-3.50
2022-12-11T20:36:29.171Z,-3.50
2022-12-11T20:38:56.072Z,-3.60
2022-12-11T20:41:24.074Z,-3.50
2022-12-11T20:43:53.220Z,-3.60
2022-12-11T20:46:22.196Z,-3.70
2022-12-11T20:48:49.306Z,-3.80
2022-12-11T20:51:22.414Z,-3.90
2022-12-11T20:53:58.107Z,-3.90
2022-12-11T20:56:27.802Z,-3.90
2022-12-11T20:58:55.414Z,-3.80
2022-12-11T21:01:24.436Z,-3.70
2022-12-11T21:03:52.889Z,-3.60
2022-12-11T21:06:25.894Z,-3.60
2022-12-11T21:08:53.380Z,-3.70
2022-12-11T21:11:21.304Z,-3.70
2022-12-11T21:13:47.958Z,-3.70
2022-12-11T21:16:14.816Z,-3.80
2022-12-11T21:18:43.342Z,-3.90
2022-12-11T21:21:10.426Z,-3.80
2022-12-11T21:23:37.140Z,-4.00
2022-12-11T21:26:04.171Z,-4.00
2022-12-11T21:28:35.489Z,-3.90
2022-12-11T21:31:04.806Z,-4.00
2022-12-11T21:33:31.435Z,-4.00
2022-12-11T21:35:58.845Z,-4.00
2022-12-11T21:38:25.641Z,-4.20
2022-12-11T21:40:53.590Z,-4.10
2022-12-11T21:43:20.409Z,-4.10
2022-12-11T21:46:02.674Z,-4.20
2022-12-11T21:48:29.884Z,-4.10
2022-12-11T21:51:08.353Z,-4.20
2022-12-11T21:53:35.379Z,-4.30
2022-12-11T21:56:06.104Z,-4.30
2022-12-11T21:58:32.838Z,-4.30
2022-12-11T22:00:59.524Z,-4.20
2022-12-11T22:03:26.093Z,-4.20
2022-12-11T22:05:52.671Z,-4.20
2022-12-11T22:08:19.274Z,-4.20
2022-12-11T22:10:46.223Z,-4.10
2022-12-11T22:13:12.827Z,-4.30
2022-12-11T22:15:39.538Z,-4.30
2022-12-11T22:18:06.280Z,-4.30
2022-12-11T22:20:32.970Z,-4.30
2022-12-11T22:22:59.702Z,-4.30
2022-12-11T22:25:26.267Z,-4.30
2022-12-11T22:27:52.848Z,-4.40
2022-12-11T22:30:19.394Z,-4.20
2022-12-11T22:32:46.007Z,-4.20
2022-12-11T22:35:12.952Z,-4.20
2022-12-11T22:37:39.695Z,-4.30
2022-12-11T22:40:06.687Z,-4.20
2022-12-11T22:42:33.639Z,-4.20
2022-12-11T22:45:00.280Z,-4.20
2022-12-11T22:47:26.864Z,-4.20
2022-12-11T22:49:53.477Z,-4.20
2022-12-11T22:52:20.169Z,-4.40
2022-12-11T22:54:46.756Z,-4.40
2022-12-11T22:57:14.225Z,-4.40
2022-12-11T22:59:41.138Z,-4.40
2022-12-11T23:02:07.866Z,-4.40
2022-12-11T23:04:34.482Z,-4.40
2022-12-11T23:07:01.183Z,-4.50
2022-12-11T23:09:27.835Z,-4.50
2022-12-11T23:11:55.597Z,-4.50
2022-12-11T23:14:22.237Z,-4.60
2022-12-11T23:16:48.877Z,-4.60
2022-12-11T23:19:18.553Z,-4.50
2022-12-11T23:21:48.967Z,-4.40
2022-12-11T23:24:15.851Z,-4.40
2022-12-11T23:26:42.748Z,-4.40
2022-12-11T23:29:09.752Z,-4.50
2022-12-11T23:31:36.512Z,-4.50
2022-12-11T23:34:03.257Z,-4.30
2022-12-11T23:36:30.733Z,-4.30
2022-12-11T23:38:57.522Z,-4.30
2022-12-11T23:41:24.174Z,-4.30
2022-12-11T23:43:50.761Z,-4.30
2022-12-11T23:46:19.928Z,-4.30
2022-12-11T23:48:46.675Z,-4.40
2022-12-11T23:51:15.790Z,-4.40
2022-12-11T23:53:42.428Z,-4.40
2022-12-11T23:56:18.064Z,-4.40
2022-12-11T23:58:44.988Z,-4.40
